Time;durP1;ratioP1;P1;durP2;ratioP2;P2;SDS_P1;SDS_P2;PMS_P1;PMS_P2;Temp;Humidity;BMP_temperature;BMP_pressure;BME280_temperature;BME280_humidity;BME280_pressure;Samples;Min_cycle;Max_cycle;Signal;HPM_P1;HPM_P2
2023/12/03 00:00:43;;;;;;;26.33;14.15;;;0.50;99.90;;;;;;5102190;27;20088;-69
2023/12/03 00:03:11;;;;;;;26.77;14.95;;;0.50;99.90;;;;;;5100766;28;20071;-69
2023/12/03 00:05:37;;;;;;;26.92;15.18;;;0.40;99.90;;;;;;5091868;27;20032;-69
2023/12/03 00:08:03;;;;;;;26.73;15.15;;;0.40;99.90;;;;;;5102485;28;20505;-69
2023/12/03 00:10:30;;;;;;;26.50;14.57;;;0.40;99.90;;;;;;5100936;28;20054;-69
2023/12/03 00:12:56;;;;;;;29.65;14.75;;;0.40;99.90;;;;;;5101695;27;20039;-69
2023/12/03 00:15:22;;;;;;;26.35;14.95;;;0.40;99.90;;;;;;5105163;28;20027;-69
2023/12/03 00:17:48;;;;;;;27.17;15.52;;;0.40;99.90;;;;;;5100430;27;20039;-69
2023/12/03 00:20:13;;;;;;;27.15;14.25;;;0.40;99.90;;;;;;5101198;27;20067;-69
2023/12/03 00:22:39;;;;;;;24.23;14.43;;;0.30;99.90;;;;;;5106875;27;20370;-69
2023/12/03 00:25:06;;;;;;;25.05;14.65;;;0.40;99.90;;;;;;5107639;28;20059;-69
2023/12/03 00:27:32;;;;;;;26.92;14.43;;;0.40;99.90;;;;;;5106245;28;20535;-69
2023/12/03 00:29:58;;;;;;;30.58;14.35;;;0.40;99.90;;;;;;5108872;27;20127;-69
2023/12/03 00:32:23;;;;;;;24.20;14.38;;;0.40;99.90;;;;;;5103279;27;20489;-69
2023/12/03 00:34:49;;;;;;;29.77;14.65;;;0.40;99.90;;;;;;5105293;28;20068;-69
2023/12/03 00:37:14;;;;;;;29.42;15.32;;;0.40;99.90;;;;;;5099253;28;20394;-69
2023/12/03 00:39:40;;;;;;;23.73;14.05;;;0.40;99.90;;;;;;5101018;27;20093;-69
2023/12/03 00:42:05;;;;;;;24.73;13.25;;;0.00;99.90;;;;;;5104204;27;20553;-69
2023/12/03 00:44:32;;;;;;;22.17;12.30;;;0.40;99.90;;;;;;5102196;28;20035;-69
2023/12/03 00:46:58;;;;;;;23.85;13.20;;;0.40;99.90;;;;;;5101857;27;20474;-69
2023/12/03 00:49:23;;;;;;;22.67;11.93;;;0.40;99.90;;;;;;5105014;28;20073;-69
2023/12/03 00:51:49;;;;;;;24.60;13.38;;;0.40;99.90;;;;;;5102549;28;20043;-69
2023/12/03 00:54:14;;;;;;;22.27;13.32;;;0.30;99.90;;;;;;5103453;28;20039;-69
2023/12/03 00:56:40;;;;;;;20.73;13.43;;;0.40;99.90;;;;;;5103814;28;20385;-69
2023/12/03 00:59:06;;;;;;;21.98;12.80;;;0.40;99.90;;;;;;5101955;28;20032;-69
2023/12/03 01:01:32;;;;;;;21.52;12.40;;;0.40;99.90;;;;;;5085596;28;20051;-69
2023/12/03 01:03:58;;;;;;;16.42;11.07;;;0.30;99.90;;;;;;5101793;27;20397;-69
2023/12/03 01:06:23;;;;;;;18.52;11.82;;;0.40;99.90;;;;;;5102213;28;20039;-69
2023/12/03 01:08:49;;;;;;;17.70;12.13;;;0.40;99.90;;;;;;5098724;27;20067;-69
2023/12/03 01:11:16;;;;;;;17.60;11.73;;;0.40;99.90;;;;;;5100351;28;20032;-69
2023/12/03 01:13:41;;;;;;;19.33;11.98;;;0.40;99.90;;;;;;5100418;28;20048;-69
2023/12/03 01:16:17;;;;;;;17.40;11.45;;;0.40;99.90;;;;;;5103473;27;20035;-69
2023/12/03 01:18:43;;;;;;;17.75;11.13;;;0.50;99.90;;;;;;5101677;27;20047;-69
2023/12/03 01:21:09;;;;;;;19.13;11.15;;;0.50;99.90;;;;;;5099902;28;20063;-69
2023/12/03 01:23:35;;;;;;;19.85;12.73;;;0.50;99.90;;;;;;5100955;27;20062;-69
2023/12/03 01:26:00;;;;;;;16.02;11.05;;;0.50;99.90;;;;;;5105577;28;20048;-69
2023/12/03 01:28:26;;;;;;;16.02;11.05;;;0.50;99.90;;;;;;5102616;27;20036;-69
2023/12/03 01:30:52;;;;;;;22.40;12.48;;;0.60;99.90;;;;;;5100290;27;20134;-69
2023/12/03 01:33:18;;;;;;;20.77;11.88;;;0.50;99.90;;;;;;5100889;27;20068;-69
2023/12/03 01:35:43;;;;;;;20.00;11.73;;;0.60;99.90;;;;;;5100909;28;20040;-69
2023/12/03 01:38:09;;;;;;;18.48;12.82;;;0.60;99.90;;;;;;5100958;28;20044;-69
2023/12/03 01:40:35;;;;;;;20.02;13.52;;;0.60;99.90;;;;;;5097920;27;20612;-69
2023/12/03 01:43:01;;;;;;;19.42;11.90;;;0.70;99.90;;;;;;5103198;27;20546;-69
2023/12/03 01:45:27;;;;;;;19.52;12.70;;;0.70;99.90;;;;;;5101636;27;20166;-69
2023/12/03 01:47:53;;;;;;;23.95;14.05;;;0.70;99.90;;;;;;5102973;28;20981;-69
2023/12/03 01:50:19;;;;;;;21.08;12.77;;;0.70;99.90;;;;;;5084236;28;20051;-69
2023/12/03 01:52:45;;;;;;;21.00;12.95;;;0.70;99.90;;;;;;5102943;27;20061;-69
2023/12/03 01:55:15;;;;;;;23.60;13.15;;;0.70;99.90;;;;;;5099569;28;20051;-69
2023/12/03 01:57:42;;;;;;;23.27;14.30;;;0.80;99.90;;;;;;5103394;27;20036;-69
2023/12/03 02:00:09;;;;;;;22.60;14.05;;;0.80;99.90;;;;;;5101163;27;20064;-69
2023/12/03 02:02:35;;;;;;;22.25;13.93;;;0.80;99.90;;;;;;5099488;28;20100;-69
2023/12/03 02:05:01;;;;;;;23.15;13.50;;;0.80;99.90;;;;;;5098722;28;20032;-69
2023/12/03 02:07:26;;;;;;;23.65;14.30;;;0.80;99.90;;;;;;5101743;28;20096;-69
2023/12/03 02:09:52;;;;;;;22.70;13.48;;;0.90;99.90;;;;;;5099889;28;21091;-69
2023/12/03 02:12:18;;;;;;;76.47;16.55;;;0.90;99.90;;;;;;5101243;27;20051;-69
2023/12/03 02:14:44;;;;;;;79.72;15.63;;;0.90;99.90;;;;;;5096890;28;20094;-69
2023/12/03 02:17:09;;;;;;;44.67;15.25;;;0.90;99.90;;;;;;5100814;28;20671;-69
2023/12/03 02:19:35;;;;;;;69.95;15.60;;;0.90;99.90;;;;;;5100870;28;20075;-69
2023/12/03 02:22:00;;;;;;;82.78;18.02;;;0.90;99.90;;;;;;5101180;28;20032;-69
2023/12/03 02:24:26;;;;;;;56.97;17.70;;;1.00;99.90;;;;;;5100061;28;20393;-69
2023/12/03 02:26:51;;;;;;;52.08;17.90;;;1.00;99.90;;;;;;5100974;28;20051;-69
2023/12/03 02:29:17;;;;;;;52.72;18.30;;;0.90;99.90;;;;;;5097575;28;20039;-69
2023/12/03 02:31:43;;;;;;;54.72;19.70;;;0.90;99.90;;;;;;5102401;28;20489;-69
2023/12/03 02:34:08;;;;;;;56.28;18.77;;;1.00;99.90;;;;;;5101956;28;20076;-69
2023/12/03 02:36:34;;;;;;;32.95;17.77;;;0.90;99.90;;;;;;5100753;28;20043;-69
2023/12/03 02:39:00;;;;;;;43.40;19.27;;;0.90;99.90;;;;;;5102831;28;20032;-69
2023/12/03 02:41:26;;;;;;;50.92;19.48;;;0.90;99.90;;;;;;5101961;28;20044;-69
2023/12/03 02:43:51;;;;;;;45.10;19.88;;;0.90;99.90;;;;;;5098131;28;20054;-69
2023/12/03 02:46:17;;;;;;;37.22;20.13;;;0.90;99.90;;;;;;5101381;28;20119;-69
2023/12/03 02:48:43;;;;;;;58.58;20.33;;;0.90;99.90;;;;;;5100402;28;20039;-69
2023/12/03 02:51:09;;;;;;;47.60;19.77;;;0.90;99.90;;;;;;5099855;28;20040;-69
2023/12/03 02:53:38;;;;;;;59.70;21.23;;;0.90;99.90;;;;;;5099580;28;20416;-69
2023/12/03 02:56:04;;;;;;;62.95;21.20;;;0.90;99.90;;;;;;5099481;28;20036;-69
2023/12/03 02:58:30;;;;;;;73.43;22.50;;;0.90;99.90;;;;;;5094949;28;20043;-69
2023/12/03 03:00:56;;;;;;;84.80;22.58;;;0.90;99.90;;;;;;5100958;28;20043;-69
2023/12/03 03:03:21;;;;;;;62.28;22.08;;;0.90;99.90;;;;;;5101116;28;20044;-69
2023/12/03 03:05:47;;;;;;;41.67;20.55;;;0.90;99.90;;;;;;5099619;28;20061;-69
2023/12/03 03:08:12;;;;;;;95.13;22.33;;;1.00;99.90;;;;;;5100422;28;20048;-69
2023/12/03 03:10:38;;;;;;;52.08;23.25;;;1.00;99.90;;;;;;5099417;28;20398;-69
2023/12/03 03:13:04;;;;;;;59.03;23.52;;;1.00;99.90;;;;;;5098785;28;20055;-69
2023/12/03 03:15:29;;;;;;;47.85;22.42;;;1.00;99.90;;;;;;5100068;28;20069;-69
2023/12/03 03:17:55;;;;;;;42.08;22.75;;;1.00;99.90;;;;;;5099808;28;20096;-69
2023/12/03 03:20:23;;;;;;;41.25;23.48;;;1.00;99.90;;;;;;5101255;28;20119;-69
2023/12/03 03:22:49;;;;;;;43.83;23.45;;;1.00;99.90;;;;;;5107493;27;20036;-69
2023/12/03 03:25:16;;;;;;;40.90;22.98;;;1.00;99.90;;;;;;5133948;27;20050;-70
2023/12/03 03:27:42;;;;;;;37.40;21.90;;;1.00;99.90;;;;;;5107920;28;20940;-69
2023/12/03 03:30:08;;;;;;;38.72;22.73;;;1.00;99.90;;;;;;5098777;28;20043;-69
2023/12/03 03:32:34;;;;;;;37.90;23.42;;;1.00;99.90;;;;;;5085459;28;20051;-69
2023/12/03 03:34:59;;;;;;;40.47;23.27;;;1.00;99.90;;;;;;5104648;27;20039;-69
2023/12/03 03:37:25;;;;;;;34.55;21.48;;;1.00;99.90;;;;;;5104641;28;20043;-69
2023/12/03 03:39:51;;;;;;;37.08;22.15;;;1.10;99.90;;;;;;5102406;27;20039;-69
2023/12/03 03:42:17;;;;;;;35.72;22.70;;;1.10;99.90;;;;;;5105115;27;20051;-69
2023/12/03 03:44:43;;;;;;;35.90;23.13;;;1.10;99.90;;;;;;5104164;28;20035;-69
2023/12/03 03:47:11;;;;;;;34.28;22.52;;;1.10;99.90;;;;;;5103426;28;20118;-69
2023/12/03 03:49:37;;;;;;;35.78;21.80;;;1.10;99.90;;;;;;5106394;27;20393;-69
2023/12/03 03:52:03;;;;;;;39.58;23.23;;;1.10;99.90;;;;;;5107600;27;20035;-69
2023/12/03 03:54:29;;;;;;;47.30;25.25;;;1.10;99.90;;;;;;5101931;28;20046;-69
2023/12/03 03:56:55;;;;;;;47.40;24.55;;;1.10;99.90;;;;;;5101822;27;20477;-69
2023/12/03 03:59:20;;;;;;;53.47;25.00;;;1.10;99.90;;;;;;5105031;28;20047;-69
2023/12/03 04:01:46;;;;;;;61.42;25.85;;;1.20;99.90;;;;;;5102958;27;20052;-69
2023/12/03 04:04:12;;;;;;;59.35;25.70;;;1.20;99.90;;;;;;5101299;28;20040;-69
2023/12/03 04:06:44;;;;;;;69.97;25.52;;;1.20;99.90;;;;;;5103711;27;20394;-69
2023/12/03 04:09:10;;;;;;;95.75;25.98;;;1.20;99.90;;;;;;5101530;27;20043;-69
2023/12/03 04:11:44;;;;;;;59.55;24.75;;;1.20;99.90;;;;;;5103425;27;20130;-69
2023/12/03 04:14:12;;;;;;;66.32;25.38;;;1.20;99.90;;;;;;5104978;27;20048;-70
2023/12/03 04:16:38;;;;;;;61.15;23.52;;;1.20;99.90;;;;;;5105817;27;20473;-69
2023/12/03 04:19:05;;;;;;;58.30;23.80;;;1.30;99.90;;;;;;5102424;28;20063;-69
2023/12/03 04:21:30;;;;;;;93.60;24.13;;;1.30;99.90;;;;;;5105837;27;20040;-69
2023/12/03 04:23:57;;;;;;;69.53;23.45;;;1.20;99.90;;;;;;5101151;28;20542;-69
2023/12/03 04:26:23;;;;;;;75.20;23.73;;;1.30;99.90;;;;;;5101967;28;20463;-69
2023/12/03 04:28:49;;;;;;;54.65;21.60;;;1.30;99.90;;;;;;5102675;27;20036;-69
2023/12/03 04:31:22;;;;;;;94.57;22.38;;;1.30;99.90;;;;;;5098757;28;20378;-69
2023/12/03 04:33:51;;;;;;;74.18;24.63;;;1.30;99.90;;;;;;5099947;27;20039;-69
2023/12/03 04:36:18;;;;;;;91.03;23.58;;;1.30;99.90;;;;;;5104324;28;20044;-69
2023/12/03 04:38:44;;;;;;;75.95;24.05;;;1.30;99.90;;;;;;5103528;27;20050;-69
2023/12/03 04:41:10;;;;;;;85.30;22.45;;;1.30;99.90;;;;;;5099868;27;20502;-69
2023/12/03 04:43:35;;;;;;;79.28;24.95;;;1.30;99.90;;;;;;5101158;27;20039;-69
2023/12/03 04:46:05;;;;;;;98.60;24.58;;;1.30;99.90;;;;;;5129877;27;20063;-69
2023/12/03 04:48:31;;;;;;;139.13;25.00;;;1.30;99.90;;;;;;5102977;27;20058;-69
2023/12/03 04:50:57;;;;;;;131.35;25.35;;;1.30;99.90;;;;;;5102439;27;20047;-70
2023/12/03 04:53:23;;;;;;;82.47;23.25;;;1.30;99.90;;;;;;5103311;27;20038;-69
2023/12/03 04:55:49;;;;;;;90.90;24.45;;;1.30;99.90;;;;;;5101756;27;20080;-69
2023/12/03 04:58:14;;;;;;;90.30;23.88;;;1.30;99.90;;;;;;5101324;27;20054;-69
2023/12/03 05:00:40;;;;;;;108.05;24.05;;;1.30;99.90;;;;;;5128876;27;20417;-69
2023/12/03 05:03:06;;;;;;;95.72;24.42;;;1.20;99.90;;;;;;5103410;27;20040;-69
2023/12/03 05:05:31;;;;;;;100.28;24.45;;;1.30;99.90;;;;;;5101925;28;20028;-69
2023/12/03 05:07:57;;;;;;;126.60;25.00;;;1.30;99.90;;;;;;5088336;28;20050;-69
2023/12/03 05:10:22;;;;;;;83.32;23.02;;;1.20;99.90;;;;;;5105299;27;20039;-69
2023/12/03 05:12:48;;;;;;;112.45;23.10;;;1.30;99.90;;;;;;5102605;28;20028;-69
2023/12/03 05:15:14;;;;;;;107.78;22.85;;;1.30;99.90;;;;;;5101638;28;20043;-69
2023/12/03 05:17:40;;;;;;;72.32;23.00;;;1.20;99.90;;;;;;5103646;28;20047;-69
2023/12/03 05:20:06;;;;;;;85.55;22.63;;;1.20;99.90;;;;;;5098006;28;20040;-69
2023/12/03 05:22:32;;;;;;;76.55;23.20;;;1.20;99.90;;;;;;5101039;27;20050;-69
2023/12/03 05:24:58;;;;;;;94.53;22.90;;;1.20;99.90;;;;;;5098978;28;20044;-69
2023/12/03 05:27:23;;;;;;;71.15;22.05;;;1.20;99.90;;;;;;5100794;27;20028;-70
2023/12/03 05:29:49;;;;;;;86.82;21.80;;;1.20;99.90;;;;;;5100767;27;20066;-70
2023/12/03 05:32:15;;;;;;;91.35;21.35;;;1.20;99.90;;;;;;5102058;27;20385;-69
2023/12/03 05:34:47;;;;;;;93.18;22.63;;;1.20;99.90;;;;;;5100353;28;20027;-69
2023/12/03 05:37:13;;;;;;;87.07;22.83;;;1.20;99.90;;;;;;5104146;27;20044;-70
2023/12/03 05:39:39;;;;;;;89.85;23.70;;;1.20;99.90;;;;;;5098075;28;20036;-69
2023/12/03 05:42:05;;;;;;;101.43;22.60;;;1.20;99.90;;;;;;5095332;28;20040;-69
2023/12/03 05:44:30;;;;;;;83.43;23.35;;;1.20;99.90;;;;;;5101006;28;20054;-69
2023/12/03 05:46:56;;;;;;;76.07;22.98;;;1.20;99.90;;;;;;5101189;28;20444;-69
2023/12/03 05:49:22;;;;;;;100.10;22.40;;;1.20;99.90;;;;;;5102641;27;20119;-69
2023/12/03 05:51:48;;;;;;;66.95;21.95;;;1.30;99.90;;;;;;5101637;28;20500;-69
2023/12/03 05:54:14;;;;;;;73.38;22.90;;;1.30;99.90;;;;;;5102162;27;20060;-69
2023/12/03 05:56:40;;;;;;;78.65;21.52;;;1.30;99.90;;;;;;5099705;27;20048;-69
2023/12/03 05:59:05;;;;;;;77.88;21.95;;;1.30;99.90;;;;;;5097705;28;20057;-69
2023/12/03 06:01:31;;;;;;;71.88;21.48;;;1.30;99.90;;;;;;5099802;28;20032;-69
2023/12/03 06:03:57;;;;;;;75.22;22.80;;;1.30;99.90;;;;;;5104411;27;20401;-69
2023/12/03 06:06:22;;;;;;;81.75;23.80;;;1.30;99.90;;;;;;5100525;27;20058;-69
2023/12/03 06:08:48;;;;;;;80.85;23.70;;;1.30;99.90;;;;;;5098338;28;20172;-69
2023/12/03 06:11:14;;;;;;;67.20;22.23;;;1.30;99.90;;;;;;5132038;27;20071;-69
2023/12/03 06:13:40;;;;;;;69.88;22.98;;;1.30;99.90;;;;;;5100597;28;20379;-69
2023/12/03 06:16:06;;;;;;;81.28;24.13;;;1.40;99.90;;;;;;5097265;28;20051;-69
2023/12/03 06:18:31;;;;;;;88.75;24.35;;;1.30;99.90;;;;;;5099601;28;20050;-69
2023/12/03 06:20:57;;;;;;;69.20;24.67;;;1.40;99.90;;;;;;5098308;28;20039;-69
2023/12/03 06:23:23;;;;;;;82.78;23.05;;;1.30;99.90;;;;;;5100776;28;20118;-69
2023/12/03 06:25:49;;;;;;;86.50;24.98;;;1.40;99.90;;;;;;5097766;28;20036;-69
2023/12/03 06:28:14;;;;;;;83.75;24.85;;;1.40;99.90;;;;;;5098866;28;20093;-69
2023/12/03 06:30:40;;;;;;;84.57;26.17;;;1.40;99.90;;;;;;5099724;28;20036;-69
2023/12/03 06:33:06;;;;;;;82.60;25.08;;;1.40;99.90;;;;;;5100674;28;20448;-69
2023/12/03 06:35:32;;;;;;;80.88;23.55;;;1.40;99.90;;;;;;5116219;27;20043;-69
2023/12/03 06:37:57;;;;;;;83.45;23.63;;;1.40;99.90;;;;;;5097269;28;20505;-69
2023/12/03 06:40:23;;;;;;;78.70;22.98;;;1.50;99.90;;;;;;5098972;28;20043;-69
2023/12/03 06:42:48;;;;;;;76.65;24.88;;;1.40;99.90;;;;;;5097248;28;20040;-70
2023/12/03 06:45:14;;;;;;;102.63;26.95;;;1.50;99.90;;;;;;5096290;28;20050;-70
2023/12/03 06:47:40;;;;;;;89.63;27.17;;;1.50;99.90;;;;;;5096995;28;20115;-70
2023/12/03 06:50:06;;;;;;;81.90;27.10;;;1.50;99.90;;;;;;5098658;28;20490;-69
2023/12/03 06:52:32;;;;;;;92.00;26.10;;;1.50;99.90;;;;;;5094749;28;20493;-69
2023/12/03 06:54:57;;;;;;;93.40;26.92;;;1.50;99.90;;;;;;5101988;28;20039;-69
2023/12/03 06:57:23;;;;;;;91.00;27.98;;;1.50;99.90;;;;;;5102528;28;20043;-69
2023/12/03 06:59:49;;;;;;;85.63;26.88;;;1.60;99.90;;;;;;5102533;28;20668;-69
2023/12/03 07:02:14;;;;;;;72.43;22.42;;;1.60;99.90;;;;;;5101116;28;20093;-69
2023/12/03 07:04:40;;;;;;;56.05;18.55;;;1.50;99.90;;;;;;5100469;28;20063;-69
2023/12/03 07:07:06;;;;;;;69.32;21.10;;;1.60;99.90;;;;;;5099610;28;20131;-69
2023/12/03 07:09:32;;;;;;;65.00;20.35;;;1.60;99.90;;;;;;5102768;28;20533;-69
2023/12/03 07:11:57;;;;;;;69.55;21.20;;;1.60;99.90;;;;;;5102815;27;20154;-70
2023/12/03 07:14:23;;;;;;;68.47;20.90;;;1.60;99.90;;;;;;5098348;27;20058;-70
2023/12/03 07:16:48;;;;;;;61.22;21.50;;;1.60;99.90;;;;;;5102715;27;20064;-70
2023/12/03 07:19:14;;;;;;;77.40;23.45;;;1.60;99.90;;;;;;5104639;27;20067;-70
2023/12/03 07:21:40;;;;;;;76.45;23.65;;;1.60;99.90;;;;;;5101922;27;20044;-70
2023/12/03 07:24:07;;;;;;;86.40;24.77;;;1.60;99.90;;;;;;5129227;27;20039;-70
2023/12/03 07:26:33;;;;;;;81.20;24.15;;;2.00;99.90;;;;;;5104626;27;20393;-70
2023/12/03 07:28:58;;;;;;;83.35;24.40;;;1.60;99.90;;;;;;5109784;27;20032;-70
2023/12/03 07:31:24;;;;;;;77.28;24.67;;;1.60;99.90;;;;;;5107548;27;20138;-70
2023/12/03 07:33:50;;;;;;;82.78;26.60;;;1.70;99.90;;;;;;5127617;27;20043;-70
2023/12/03 07:36:15;;;;;;;77.40;26.08;;;1.70;99.90;;;;;;5131020;27;20433;-70
2023/12/03 07:38:41;;;;;;;82.82;25.92;;;1.70;99.90;;;;;;5103022;27;20081;-70
2023/12/03 07:41:10;;;;;;;71.13;24.17;;;1.70;99.90;;;;;;5099383;27;20398;-70
2023/12/03 07:43:36;;;;;;;72.55;24.77;;;1.70;99.90;;;;;;5102169;27;20050;-70
2023/12/03 07:46:02;;;;;;;75.55;26.35;;;1.70;99.90;;;;;;5098479;27;20048;-70
2023/12/03 07:48:27;;;;;;;73.07;24.88;;;1.70;99.90;;;;;;5101231;27;20039;-70
2023/12/03 07:50:53;;;;;;;74.55;25.25;;;1.80;99.90;;;;;;5101748;27;20435;-70
2023/12/03 07:53:19;;;;;;;81.60;27.77;;;1.70;99.90;;;;;;5101136;27;20087;-69
2023/12/03 07:55:44;;;;;;;75.65;27.10;;;1.80;99.90;;;;;;5100585;28;20035;-70
2023/12/03 07:58:10;;;;;;;81.90;26.33;;;1.70;99.90;;;;;;5100507;27;20085;-70
2023/12/03 08:00:37;;;;;;;73.93;27.08;;;1.70;99.90;;;;;;5086102;28;21293;-70
2023/12/03 08:03:03;;;;;;;80.70;25.27;;;1.70;99.90;;;;;;5099193;28;20039;-70
2023/12/03 08:05:28;;;;;;;73.47;25.92;;;1.80;99.90;;;;;;5086389;28;20035;-70
2023/12/03 08:07:54;;;;;;;73.72;25.02;;;1.70;99.90;;;;;;5093958;27;20379;-70
2023/12/03 08:10:20;;;;;;;76.60;25.40;;;1.80;99.90;;;;;;5095189;27;20509;-70
2023/12/03 08:12:46;;;;;;;71.75;25.10;;;1.80;99.90;;;;;;5099853;27;20039;-70
2023/12/03 08:15:11;;;;;;;68.07;24.55;;;1.80;99.90;;;;;;5101489;27;20956;-70
2023/12/03 08:17:37;;;;;;;64.22;24.25;;;1.80;99.90;;;;;;5095528;27;20036;-70
2023/12/03 08:20:05;;;;;;;63.08;24.13;;;1.90;99.90;;;;;;5101308;28;20040;-70
2023/12/03 08:22:34;;;;;;;64.75;23.60;;;1.80;99.90;;;;;;5102119;27;20039;-70
2023/12/03 08:24:59;;;;;;;63.90;24.10;;;1.90;99.90;;;;;;5082282;28;20035;-70
2023/12/03 08:27:25;;;;;;;57.53;22.88;;;1.90;99.90;;;;;;5104318;27;20389;-70
2023/12/03 08:29:51;;;;;;;67.40;23.88;;;1.90;99.90;;;;;;5104275;27;20092;-70
2023/12/03 08:32:18;;;;;;;58.97;22.70;;;1.80;99.90;;;;;;5103187;28;20406;-70
2023/12/03 08:34:44;;;;;;;59.22;23.52;;;1.90;99.90;;;;;;5102036;28;20093;-70
2023/12/03 08:37:09;;;;;;;60.70;23.45;;;1.90;99.90;;;;;;5103868;27;20039;-70
2023/12/03 08:39:35;;;;;;;63.33;23.65;;;1.90;99.90;;;;;;5100808;27;20035;-70
2023/12/03 08:42:01;;;;;;;58.17;23.02;;;1.90;99.90;;;;;;5098280;28;20046;-70
2023/12/03 08:44:26;;;;;;;63.17;25.13;;;2.00;99.90;;;;;;5101250;27;20039;-70
2023/12/03 08:46:52;;;;;;;57.13;24.42;;;2.00;99.90;;;;;;5100725;27;20043;-70
2023/12/03 08:49:17;;;;;;;55.63;23.80;;;2.00;99.90;;;;;;5107897;27;20036;-70
2023/12/03 08:51:43;;;;;;;55.17;25.42;;;2.00;99.90;;;;;;5101358;27;20119;-70
2023/12/03 08:54:09;;;;;;;56.33;25.23;;;2.00;99.90;;;;;;5132750;27;20036;-69
2023/12/03 08:56:34;;;;;;;54.85;24.85;;;2.10;99.90;;;;;;5104326;27;20039;-69
2023/12/03 08:59:00;;;;;;;57.75;26.13;;;2.10;99.90;;;;;;5101231;27;20044;-69
2023/12/03 09:01:26;;;;;;;54.70;24.42;;;2.00;99.90;;;;;;5100658;27;20054;-69
2023/12/03 09:03:52;;;;;;;54.10;24.33;;;2.10;99.90;;;;;;5101294;28;20055;-69
2023/12/03 09:06:17;;;;;;;62.22;26.35;;;2.20;99.90;;;;;;5101481;27;20055;-69
2023/12/03 09:08:43;;;;;;;55.30;26.60;;;2.20;99.90;;;;;;5103840;27;20039;-69
2023/12/03 09:11:09;;;;;;;51.65;25.52;;;2.10;99.90;;;;;;5084032;28;20043;-69
2023/12/03 09:13:34;;;;;;;54.08;26.27;;;2.20;99.90;;;;;;5101962;28;20123;-68
2023/12/03 09:16:00;;;;;;;50.05;25.27;;;2.20;99.90;;;;;;5100739;28;20040;-69
2023/12/03 09:18:25;;;;;;;52.97;27.30;;;2.20;99.90;;;;;;5100472;27;20661;-69
2023/12/03 09:20:51;;;;;;;49.38;27.15;;;2.20;99.90;;;;;;5100799;27;20040;-69
2023/12/03 09:23:18;;;;;;;48.05;29.05;;;2.20;99.90;;;;;;5099733;28;20092;-69
2023/12/03 09:25:44;;;;;;;46.28;26.75;;;2.20;99.90;;;;;;5102113;27;20063;-69
2023/12/03 09:28:11;;;;;;;45.25;27.20;;;2.20;99.90;;;;;;5099201;27;20037;-69
2023/12/03 09:30:37;;;;;;;47.60;28.75;;;2.10;99.90;;;;;;5100635;28;20477;-69
2023/12/03 09:33:04;;;;;;;45.95;27.23;;;2.20;99.90;;;;;;5098072;27;20036;-69
2023/12/03 09:35:31;;;;;;;42.15;27.73;;;2.30;99.90;;;;;;5101906;27;20073;-69
2023/12/03 09:37:56;;;;;;;39.83;27.17;;;2.30;99.90;;;;;;5095474;27;21643;-69
2023/12/03 09:40:23;;;;;;;47.00;29.42;;;2.50;99.90;;;;;;5101201;27;20031;-69
2023/12/03 09:42:50;;;;;;;44.53;29.00;;;2.30;99.90;;;;;;5126939;27;20036;-69
2023/12/03 09:45:19;;;;;;;37.95;26.85;;;2.40;99.90;;;;;;5095709;27;20043;-69
2023/12/03 09:47:49;;;;;;;42.50;29.00;;;2.40;99.90;;;;;;5099467;27;20123;-68
2023/12/03 09:50:16;;;;;;;41.35;28.20;;;2.50;99.90;;;;;;5099796;27;20105;-69
2023/12/03 09:52:43;;;;;;;38.92;28.27;;;2.50;99.90;;;;;;5099984;27;20058;-69
2023/12/03 09:55:09;;;;;;;34.50;25.92;;;2.50;99.90;;;;;;5096884;28;20051;-69
2023/12/03 09:57:38;;;;;;;37.72;27.42;;;2.50;99.90;;;;;;5099462;28;20381;-69
2023/12/03 10:00:07;;;;;;;36.65;26.55;;;2.50;99.90;;;;;;5095472;28;20044;-69
2023/12/03 10:02:34;;;;;;;39.05;27.17;;;2.60;99.90;;;;;;5100815;27;20040;-68
2023/12/03 10:05:00;;;;;;;35.60;27.08;;;2.60;99.90;;;;;;5130524;27;20044;-69
2023/12/03 10:07:29;;;;;;;33.78;26.70;;;2.60;99.90;;;;;;5098569;27;20081;-68
2023/12/03 10:09:59;;;;;;;34.30;25.90;;;2.70;99.90;;;;;;5099240;28;20036;-68
2023/12/03 10:12:32;;;;;;;31.45;25.13;;;2.60;99.90;;;;;;5100042;27;20075;-68
2023/12/03 10:14:58;;;;;;;34.03;26.38;;;2.60;99.90;;;;;;5101414;28;20700;-69
2023/12/03 10:17:24;;;;;;;33.90;25.38;;;2.60;99.90;;;;;;5098159;28;20066;-69
2023/12/03 10:19:49;;;;;;;33.92;26.38;;;2.60;99.90;;;;;;5097746;28;20640;-68
2023/12/03 10:22:15;;;;;;;32.28;24.58;;;2.70;99.90;;;;;;5102822;27;20044;-68
2023/12/03 10:24:48;;;;;;;30.88;24.83;;;2.60;99.90;;;;;;5098383;28;20044;-68
2023/12/03 10:27:14;;;;;;;31.70;24.38;;;2.80;99.90;;;;;;5111432;27;20043;-68
2023/12/03 10:29:40;;;;;;;29.23;22.80;;;2.70;99.90;;;;;;5098444;28;20419;-68
2023/12/03 10:32:08;;;;;;;26.15;21.70;;;2.80;99.90;;;;;;5083508;28;20043;-68
2023/12/03 10:34:33;;;;;;;28.00;22.08;;;2.80;99.90;;;;;;5129905;27;20044;-69
2023/12/03 10:37:02;;;;;;;31.60;22.60;;;2.80;99.90;;;;;;5099953;28;20050;-69
2023/12/03 10:39:30;;;;;;;28.95;22.02;;;2.80;99.90;;;;;;5097905;28;20068;-68
2023/12/03 10:41:56;;;;;;;29.80;23.55;;;2.80;99.90;;;;;;5101416;28;20071;-68
2023/12/03 10:44:24;;;;;;;29.35;23.10;;;2.80;99.90;;;;;;5098360;28;20071;-69
2023/12/03 10:46:50;;;;;;;28.02;20.67;;;2.90;99.90;;;;;;5102017;28;20052;-69
2023/12/03 10:49:16;;;;;;;27.17;21.55;;;2.90;99.90;;;;;;5102979;28;20055;-68
2023/12/03 10:51:43;;;;;;;25.73;21.25;;;2.80;99.90;;;;;;5100039;28;20067;-68
2023/12/03 10:54:12;;;;;;;29.08;23.08;;;2.90;99.90;;;;;;5098688;28;20126;-68
2023/12/03 10:56:43;;;;;;;28.27;20.77;;;3.00;99.90;;;;;;5102773;27;20390;-68
2023/12/03 10:59:11;;;;;;;24.38;18.42;;;2.90;99.90;;;;;;5097422;28;20042;-67
2023/12/03 11:01:47;;;;;;;24.65;19.20;;;2.90;99.90;;;;;;5096293;28;20047;-68
2023/12/03 11:05:06;;;;;;;23.65;18.02;;;2.80;99.90;;;;;;5101368;28;20040;-68
2023/12/03 11:07:33;;;;;;;24.38;17.98;;;2.80;99.90;;;;;;5066064;28;20047;-68
2023/12/03 11:09:59;;;;;;;25.02;17.52;;;2.70;99.90;;;;;;5103697;28;20074;-68
2023/12/03 11:12:25;;;;;;;21.27;17.42;;;2.60;99.90;;;;;;5097274;28;20032;-68
2023/12/03 11:14:52;;;;;;;24.83;18.85;;;2.50;99.90;;;;;;5099860;27;20048;-68
2023/12/03 11:17:38;;;;;;;22.30;16.90;;;2.50;99.90;;;;;;5096688;28;20068;-68
2023/12/03 11:20:16;;;;;;;22.92;17.70;;;2.50;99.90;;;;;;5100541;28;20032;-68
2023/12/03 11:23:00;;;;;;;22.85;16.85;;;2.50;99.90;;;;;;5096757;28;20673;-68
2023/12/03 11:25:34;;;;;;;22.25;17.15;;;2.50;99.90;;;;;;5099247;28;20042;-68
2023/12/03 11:27:59;;;;;;;23.30;17.55;;;2.50;99.90;;;;;;5095513;28;20043;-68
2023/12/03 11:30:40;;;;;;;26.92;18.55;;;2.40;99.90;;;;;;5103169;28;20384;-68
2023/12/03 11:33:19;;;;;;;23.25;17.73;;;2.40;99.90;;;;;;5095037;28;20053;-68
2023/12/03 11:35:47;;;;;;;26.33;18.35;;;2.40;99.90;;;;;;5098728;28;20033;-68
2023/12/03 11:38:21;;;;;;;28.38;19.30;;;2.40;99.90;;;;;;5095853;28;20062;-68
2023/12/03 11:40:48;;;;;;;27.23;18.88;;;2.40;99.90;;;;;;5098879;27;20044;-68
2023/12/03 11:43:30;;;;;;;26.42;18.67;;;2.40;99.90;;;;;;5100511;27;20695;-68
2023/12/03 11:45:57;;;;;;;26.75;17.17;;;2.30;99.90;;;;;;5102007;27;20039;-67
2023/12/03 11:48:29;;;;;;;25.92;18.55;;;2.30;99.90;;;;;;5100838;27;20092;-68
2023/12/03 11:50:56;;;;;;;32.45;21.02;;;2.20;99.90;;;;;;5098839;27;20057;-68
2023/12/03 11:53:58;;;;;;;37.22;23.92;;;2.30;99.90;;;;;;5100141;28;20047;-68
2023/12/03 11:56:24;;;;;;;31.65;21.58;;;2.10;99.90;;;;;;5101915;27;20100;-68
2023/12/03 11:58:50;;;;;;;34.58;22.58;;;2.20;99.90;;;;;;5102643;27;20641;-68
2023/12/03 12:01:16;;;;;;;31.63;21.88;;;2.20;99.90;;;;;;5097691;27;20052;-68
2023/12/03 12:03:42;;;;;;;34.40;24.35;;;2.20;99.90;;;;;;5099076;27;20130;-68
2023/12/03 12:06:08;;;;;;;30.98;21.83;;;2.20;99.90;;;;;;5096459;27;20085;-68
2023/12/03 12:08:34;;;;;;;33.25;22.02;;;2.20;99.90;;;;;;5100471;27;21036;-68
2023/12/03 12:10:59;;;;;;;38.20;25.67;;;2.30;99.90;;;;;;5099967;27;20036;-68
2023/12/03 12:13:26;;;;;;;37.00;24.92;;;2.30;99.90;;;;;;5100269;27;20101;-68
2023/12/03 12:15:55;;;;;;;35.83;24.00;;;2.40;99.90;;;;;;5097463;27;20048;-68
2023/12/03 12:18:23;;;;;;;34.70;24.83;;;2.50;99.90;;;;;;5100418;27;20713;-68
2023/12/03 12:20:49;;;;;;;38.25;25.58;;;2.50;99.90;;;;;;5100200;27;20649;-67
2023/12/03 12:23:15;;;;;;;33.45;23.80;;;2.60;99.90;;;;;;5098055;27;20066;-68
2023/12/03 12:25:41;;;;;;;34.45;24.65;;;2.70;99.90;;;;;;5096190;27;20069;-68
2023/12/03 12:28:07;;;;;;;34.20;24.92;;;2.70;99.90;;;;;;5098343;27;20052;-68
2023/12/03 12:30:33;;;;;;;33.33;23.50;;;2.80;99.90;;;;;;5096800;27;20078;-68
2023/12/03 12:33:01;;;;;;;33.17;23.92;;;2.90;99.90;;;;;;5096824;27;20093;-68